Time;durP1;ratioP1;P1;durP2;ratioP2;P2;SDS_P1;SDS_P2;PMS_P1;PMS_P2;Temp;Humidity;BMP_temperature;BMP_pressure;BME280_temperature;BME280_humidity;BME280_pressure;Samples;Min_cycle;Max_cycle;Signal;HPM_P1;HPM_P2
2021/04/22 00:00:42;;;;;;;11.55;10.10;;;15.20;59.00;;;;;;5049184;28;20071;-60
2021/04/22 00:03:07;;;;;;;11.82;9.40;;;15.20;59.30;;;;;;5063063;28;20031;-60
2021/04/22 00:05:37;;;;;;;11.25;10.02;;;15.30;59.60;;;;;;5067226;28;20115;-60
2021/04/22 00:08:07;;;;;;;9.50;8.70;;;15.20;60.00;;;;;;5052016;28;20043;-60
2021/04/22 00:10:45;;;;;;;11.48;10.38;;;15.20;61.40;;;;;;5043319;28;20042;-60
2021/04/22 00:16:33;;;;;;;12.30;11.13;;;15.10;63.00;;;;;;4940832;28;20055;-60
2021/04/22 00:18:59;;;;;;;13.50;12.20;;;15.10;63.10;;;;;;5040438;28;20477;-60
2021/04/22 00:21:25;;;;;;;11.80;10.68;;;15.10;63.30;;;;;;5045643;28;20120;-60
2021/04/22 00:23:50;;;;;;;13.27;12.00;;;15.10;63.60;;;;;;5025935;28;20112;-59
2021/04/22 00:26:16;;;;;;;13.65;12.35;;;15.10;63.60;;;;;;5056351;28;20036;-60
2021/04/22 00:28:42;;;;;;;14.65;13.15;;;15.00;63.60;;;;;;5049138;28;20066;-60
2021/04/22 00:31:07;;;;;;;14.52;13.13;;;15.00;64.00;;;;;;5051857;28;20041;-60
2021/04/22 00:33:34;;;;;;;14.05;12.70;;;15.00;64.00;;;;;;5061615;28;20028;-61
2021/04/22 00:36:00;;;;;;;14.80;13.30;;;15.10;64.20;;;;;;5060905;28;20040;-61
2021/04/22 00:38:25;;;;;;;14.90;13.40;;;15.00;64.60;;;;;;5062726;28;20060;-60
2021/04/22 00:40:52;;;;;;;14.23;12.77;;;15.00;64.50;;;;;;5054904;28;20569;-60
2021/04/22 00:43:19;;;;;;;14.55;13.05;;;15.00;64.30;;;;;;5050149;28;20106;-60
2021/04/22 00:45:46;;;;;;;14.63;13.32;;;15.00;65.20;;;;;;5048997;28;20048;-61
2021/04/22 00:48:14;;;;;;;14.90;13.60;;;15.00;65.10;;;;;;5039623;28;20055;-61
2021/04/22 00:50:41;;;;;;;15.35;13.77;;;15.00;65.00;;;;;;5037968;28;20036;-61
2021/04/22 00:53:07;;;;;;;13.98;12.68;;;15.00;65.20;;;;;;5056139;28;20029;-61
2021/04/22 00:55:34;;;;;;;11.77;10.68;;;14.90;64.70;;;;;;5045020;28;20044;-61
2021/04/22 00:58:02;;;;;;;12.65;11.45;;;14.90;64.80;;;;;;5042534;28;20044;-61
2021/04/22 01:00:42;;;;;;;12.93;11.63;;;14.90;64.60;;;;;;5050805;28;20037;-60
2021/04/22 01:03:09;;;;;;;12.57;11.38;;;14.90;64.60;;;;;;4981909;28;20052;-60
2021/04/22 01:05:39;;;;;;;12.00;11.00;;;15.00;64.60;;;;;;5027712;28;20163;-61
2021/04/22 01:08:05;;;;;;;12.80;11.70;;;14.90;64.90;;;;;;5049540;28;20073;-61
2021/04/22 01:10:31;;;;;;;12.70;11.55;;;15.00;65.00;;;;;;5048976;28;20110;-63
2021/04/22 01:12:57;;;;;;;12.18;10.98;;;14.90;65.20;;;;;;5052587;28;20037;-61
2021/04/22 01:15:28;;;;;;;11.80;10.60;;;14.80;65.40;;;;;;5064770;28;20048;-60
2021/04/22 01:17:54;;;;;;;12.90;11.60;;;14.80;66.20;;;;;;5058440;28;20042;-60
2021/04/22 01:20:31;;;;;;;12.18;11.07;;;14.80;66.00;;;;;;5056469;28;20045;-61
2021/04/22 01:22:59;;;;;;;12.85;11.50;;;14.80;66.10;;;;;;5047763;28;20485;-61
2021/04/22 01:25:27;;;;;;;13.45;12.25;;;14.70;66.50;;;;;;5041594;28;20522;-60
2021/04/22 01:27:54;;;;;;;13.88;12.60;;;14.80;66.70;;;;;;5041944;28;20543;-61
2021/04/22 01:30:24;;;;;;;13.05;11.75;;;14.80;66.30;;;;;;5048349;28;20090;-60
2021/04/22 01:32:50;;;;;;;12.20;11.10;;;14.80;66.80;;;;;;5044376;28;20053;-61
2021/04/22 01:35:21;;;;;;;13.80;12.00;;;14.70;66.30;;;;;;5043388;28;20195;-60
2021/04/22 01:37:47;;;;;;;13.85;12.55;;;14.70;66.60;;;;;;5041232;28;20122;-60
2021/04/22 01:40:14;;;;;;;12.75;11.55;;;14.70;66.30;;;;;;5054696;28;20048;-60
2021/04/22 01:42:40;;;;;;;14.38;12.90;;;14.70;66.90;;;;;;5051779;28;20443;-61
2021/04/22 01:45:07;;;;;;;13.65;12.30;;;14.60;67.10;;;;;;5049982;28;20114;-61
2021/04/22 01:47:34;;;;;;;13.57;12.25;;;14.70;67.00;;;;;;5052275;28;20047;-61
2021/04/22 01:49:59;;;;;;;14.00;12.68;;;14.70;67.10;;;;;;5061222;28;20481;-60
2021/04/22 01:52:25;;;;;;;14.82;13.35;;;14.70;67.40;;;;;;5048652;28;20106;-60
2021/04/22 01:54:51;;;;;;;15.57;14.10;;;14.60;67.40;;;;;;5055407;28;20040;-61
2021/04/22 01:57:17;;;;;;;15.75;14.35;;;14.60;67.40;;;;;;5051451;28;20041;-60
2021/04/22 01:59:43;;;;;;;15.40;13.95;;;14.50;67.50;;;;;;5046075;28;20052;-61
2021/04/22 02:02:09;;;;;;;15.88;14.38;;;14.60;67.70;;;;;;5038645;28;20376;-61
2021/04/22 02:04:34;;;;;;;16.08;14.48;;;14.60;67.70;;;;;;5043747;28;20099;-61
2021/04/22 02:07:02;;;;;;;15.50;13.98;;;14.50;68.00;;;;;;5049100;28;20029;-60
2021/04/22 02:09:27;;;;;;;15.23;13.80;;;14.50;68.30;;;;;;5049118;28;20041;-62
2021/04/22 02:11:53;;;;;;;15.68;14.13;;;14.50;68.30;;;;;;5063205;28;20056;-60
2021/04/22 02:14:18;;;;;;;15.10;13.70;;;14.60;68.50;;;;;;5054307;28;20049;-60
2021/04/22 02:16:44;;;;;;;17.92;16.25;;;14.50;68.30;;;;;;5062333;28;20090;-60
2021/04/22 02:19:12;;;;;;;15.15;13.45;;;14.40;68.30;;;;;;5062844;28;20043;-61
2021/04/22 02:21:38;;;;;;;16.38;14.68;;;14.40;68.80;;;;;;5066601;28;20036;-61
2021/04/22 02:24:04;;;;;;;16.58;15.05;;;14.40;69.00;;;;;;5062042;28;20033;-61
2021/04/22 02:26:30;;;;;;;15.75;14.20;;;14.30;69.80;;;;;;5032260;28;20136;-60
2021/04/22 02:28:56;;;;;;;16.95;15.18;;;14.40;69.20;;;;;;5046740;28;20135;-60
2021/04/22 02:31:21;;;;;;;16.73;15.13;;;14.30;69.40;;;;;;5066911;28;20063;-60
2021/04/22 02:33:52;;;;;;;16.52;15.02;;;14.40;69.60;;;;;;5062413;28;20402;-60
2021/04/22 02:36:18;;;;;;;16.63;14.85;;;14.40;69.30;;;;;;5041302;28;20037;-61
2021/04/22 02:38:43;;;;;;;16.05;14.57;;;14.30;69.40;;;;;;5044808;28;20141;-60
2021/04/22 02:41:09;;;;;;;16.65;14.88;;;14.30;69.50;;;;;;5043161;28;20048;-61
2021/04/22 02:43:35;;;;;;;16.90;15.20;;;14.30;69.40;;;;;;5068171;28;20086;-61
2021/04/22 02:46:00;;;;;;;17.40;15.52;;;14.30;69.60;;;;;;5041067;28;20081;-61
2021/04/22 02:48:26;;;;;;;16.85;15.05;;;14.20;69.90;;;;;;5049779;28;20483;-60
2021/04/22 02:50:54;;;;;;;17.70;16.00;;;14.20;70.00;;;;;;5048788;28;20120;-60
2021/04/22 02:53:21;;;;;;;17.30;15.70;;;14.20;70.00;;;;;;5060892;28;20040;-60
2021/04/22 02:55:48;;;;;;;17.98;16.23;;;14.30;70.10;;;;;;5046230;28;20060;-61
2021/04/22 02:58:15;;;;;;;16.92;15.23;;;14.20;69.70;;;;;;5056299;28;20041;-61
2021/04/22 03:00:43;;;;;;;17.30;15.50;;;14.20;69.80;;;;;;5061449;28;20115;-61
2021/04/22 03:03:09;;;;;;;16.92;15.25;;;14.20;69.80;;;;;;5061592;28;20441;-61
2021/04/22 03:05:36;;;;;;;18.17;16.30;;;14.10;69.70;;;;;;5057364;28;20078;-60
2021/04/22 03:08:03;;;;;;;16.35;14.65;;;14.10;68.60;;;;;;5055479;28;20048;-61
2021/04/22 03:10:29;;;;;;;17.80;15.07;;;14.10;68.50;;;;;;5059890;28;20044;-59
2021/04/22 03:12:56;;;;;;;17.60;15.90;;;14.20;67.60;;;;;;5064131;28;20033;-59
2021/04/22 03:15:22;;;;;;;17.17;15.48;;;14.20;67.50;;;;;;5051480;28;20372;-59
2021/04/22 03:17:48;;;;;;;18.13;15.52;;;14.10;67.40;;;;;;5049105;28;20053;-59
2021/04/22 03:20:16;;;;;;;16.73;15.02;;;14.10;67.40;;;;;;5050543;28;20495;-59
2021/04/22 03:22:42;;;;;;;19.65;15.60;;;14.00;67.80;;;;;;5060015;28;20039;-59
2021/04/22 03:25:25;;;;;;;17.73;15.90;;;13.90;67.80;;;;;;5049918;28;20091;-60
2021/04/22 03:27:51;;;;;;;16.40;14.80;;;14.00;67.70;;;;;;5027035;28;20037;-60
2021/04/22 03:30:20;;;;;;;17.20;15.52;;;14.00;67.70;;;;;;5050305;28;20094;-60
2021/04/22 03:32:45;;;;;;;19.00;17.02;;;13.90;67.30;;;;;;5060519;28;20422;-59
2021/04/22 03:35:12;;;;;;;18.27;16.00;;;13.90;67.30;;;;;;5034262;28;20123;-60
2021/04/22 03:37:39;;;;;;;17.17;15.40;;;13.90;66.50;;;;;;5043996;28;20364;-60
2021/04/22 03:40:06;;;;;;;17.40;15.63;;;13.90;65.80;;;;;;5054584;28;20055;-60
2021/04/22 03:42:32;;;;;;;18.75;15.48;;;14.00;66.40;;;;;;5048028;28;20037;-60
2021/04/22 03:44:58;;;;;;;18.35;16.02;;;13.90;65.80;;;;;;5050344;28;20152;-59
2021/04/22 03:47:24;;;;;;;17.25;15.18;;;13.90;66.20;;;;;;5048400;28;20090;-59
2021/04/22 03:49:49;;;;;;;18.15;16.25;;;13.90;65.90;;;;;;5047221;28;20045;-60
2021/04/22 03:52:15;;;;;;;18.67;16.52;;;13.80;65.30;;;;;;5058181;28;20061;-60
2021/04/22 03:54:41;;;;;;;16.52;14.93;;;13.90;65.00;;;;;;5051690;28;20056;-60
2021/04/22 03:57:07;;;;;;;17.35;15.50;;;13.80;65.10;;;;;;5042679;28;20479;-60
2021/04/22 03:59:33;;;;;;;17.98;15.90;;;13.80;64.30;;;;;;5059018;28;20462;-60
2021/04/22 04:01:59;;;;;;;17.50;15.80;;;13.80;63.70;;;;;;5043572;28;20123;-60
2021/04/22 04:04:24;;;;;;;17.50;15.65;;;13.70;63.30;;;;;;5054010;28;20032;-60
2021/04/22 04:06:50;;;;;;;17.67;15.93;;;13.80;63.30;;;;;;5059817;28;20044;-60
2021/04/22 04:09:16;;;;;;;17.35;15.70;;;13.80;63.60;;;;;;5055035;28;20033;-60
2021/04/22 04:11:41;;;;;;;18.15;16.35;;;13.70;63.50;;;;;;5039819;28;20049;-60
2021/04/22 04:14:07;;;;;;;18.25;16.45;;;13.70;63.70;;;;;;5049876;28;20467;-61
2021/04/22 04:16:33;;;;;;;18.35;16.02;;;13.70;63.60;;;;;;5051428;28;20060;-60
2021/04/22 04:18:58;;;;;;;16.98;15.27;;;13.70;63.90;;;;;;5048554;28;20076;-60
2021/04/22 04:21:26;;;;;;;18.05;16.17;;;13.60;63.80;;;;;;5062780;28;20040;-61
2021/04/22 04:23:51;;;;;;;16.67;14.85;;;13.70;63.60;;;;;;5057134;28;20500;-60
2021/04/22 04:26:17;;;;;;;17.00;15.30;;;13.60;64.10;;;;;;5041181;28;20140;-60
2021/04/22 04:28:43;;;;;;;19.25;15.43;;;13.60;62.90;;;;;;5050321;28;20479;-60
2021/04/22 04:31:09;;;;;;;17.30;15.50;;;13.60;63.30;;;;;;5049812;28;20047;-60
2021/04/22 04:33:35;;;;;;;15.98;14.27;;;13.60;63.90;;;;;;5050290;28;20044;-61
2021/04/22 04:36:00;;;;;;;21.17;18.38;;;13.50;63.60;;;;;;5051444;28;20045;-60
2021/04/22 04:38:26;;;;;;;22.52;18.83;;;13.60;65.10;;;;;;5064477;28;20055;-60
2021/04/22 04:40:52;;;;;;;24.75;22.13;;;13.70;65.90;;;;;;5051794;28;20189;-60
2021/04/22 04:43:17;;;;;;;24.33;21.80;;;13.70;66.50;;;;;;5061267;28;20065;-60
2021/04/22 04:45:43;;;;;;;25.02;22.30;;;13.60;67.30;;;;;;5061692;28;20029;-61
2021/04/22 04:48:09;;;;;;;27.02;24.10;;;13.60;67.90;;;;;;5060620;28;20509;-60
2021/04/22 04:50:35;;;;;;;25.98;23.17;;;13.60;68.10;;;;;;5042978;28;20029;-61
2021/04/22 04:53:01;;;;;;;27.05;24.27;;;13.70;68.40;;;;;;5052999;28;20036;-60
2021/04/22 04:55:26;;;;;;;28.48;25.38;;;13.60;68.60;;;;;;5061741;28;20075;-60
2021/04/22 04:57:52;;;;;;;28.55;25.30;;;13.60;68.40;;;;;;5062010;28;20040;-61
2021/04/22 05:00:19;;;;;;;30.17;25.75;;;13.60;69.10;;;;;;5050741;28;20049;-61
2021/04/22 05:02:45;;;;;;;26.30;23.33;;;13.70;68.90;;;;;;5048235;28;20045;-60
2021/04/22 05:05:12;;;;;;;30.67;24.90;;;13.70;68.80;;;;;;5042175;28;20037;-61
2021/04/22 05:07:37;;;;;;;27.50;24.48;;;13.70;68.20;;;;;;5054337;28;20044;-61
2021/04/22 05:10:05;;;;;;;25.27;22.52;;;13.70;67.30;;;;;;5049477;28;22854;-60
2021/04/22 05:12:31;;;;;;;24.95;22.35;;;13.70;67.20;;;;;;5057536;28;20047;-61
2021/04/22 05:14:57;;;;;;;22.60;20.15;;;13.70;67.70;;;;;;5028127;28;20044;-60
2021/04/22 05:17:22;;;;;;;21.38;19.13;;;13.80;65.90;;;;;;5052183;28;20037;-61
2021/04/22 05:19:48;;;;;;;19.58;17.30;;;13.80;65.90;;;;;;5048048;28;20108;-60
2021/04/22 05:22:14;;;;;;;19.70;17.70;;;13.60;64.60;;;;;;5033011;28;20041;-60
2021/04/22 05:24:39;;;;;;;16.20;13.85;;;13.70;64.40;;;;;;5052736;28;20045;-61
2021/04/22 05:27:06;;;;;;;17.33;13.82;;;13.60;61.80;;;;;;5047288;28;20590;-61
2021/04/22 05:29:31;;;;;;;14.05;12.55;;;13.70;61.10;;;;;;5057627;28;20387;-60
2021/04/22 05:31:57;;;;;;;14.05;12.50;;;13.70;60.80;;;;;;5055723;28;20070;-60
2021/04/22 05:34:23;;;;;;;15.50;11.60;;;13.60;60.10;;;;;;5065867;28;22964;-60
2021/04/22 05:36:48;;;;;;;13.02;11.63;;;13.70;59.10;;;;;;5043404;28;20029;-59
2021/04/22 05:39:14;;;;;;;13.38;11.35;;;13.80;58.80;;;;;;5054030;28;20055;-60
2021/04/22 05:41:40;;;;;;;13.07;11.32;;;13.70;57.60;;;;;;5046237;28;20048;-61
2021/04/22 05:44:06;;;;;;;15.70;11.38;;;13.70;57.50;;;;;;5052397;28;20121;-60
2021/04/22 05:46:31;;;;;;;12.50;11.13;;;13.70;57.50;;;;;;5062469;28;20068;-60
2021/04/22 05:48:57;;;;;;;14.30;12.10;;;13.70;57.60;;;;;;5051596;28;20397;-60
2021/04/22 05:51:23;;;;;;;19.45;12.55;;;13.70;57.40;;;;;;5051121;28;20044;-60
2021/04/22 05:53:49;;;;;;;13.30;11.88;;;13.70;57.20;;;;;;5052617;28;20094;-60
2021/04/22 05:56:15;;;;;;;15.55;12.02;;;13.60;57.10;;;;;;5060253;28;20110;-61
2021/04/22 05:58:41;;;;;;;13.82;12.18;;;13.60;57.30;;;;;;5051626;28;20053;-61
2021/04/22 06:01:07;;;;;;;15.30;12.43;;;13.70;57.60;;;;;;5038763;28;20079;-60
2021/04/22 06:03:33;;;;;;;14.57;12.95;;;13.80;57.30;;;;;;5045956;28;20091;-59
2021/04/22 06:05:58;;;;;;;16.25;13.45;;;13.80;57.10;;;;;;5057431;28;20036;-60
2021/04/22 06:08:26;;;;;;;15.75;14.23;;;13.80;57.20;;;;;;5051773;28;20040;-60
2021/04/22 06:10:51;;;;;;;16.75;15.05;;;13.80;57.20;;;;;;5067675;28;20494;-60
2021/04/22 06:13:17;;;;;;;18.15;16.23;;;13.80;57.20;;;;;;5047893;28;20057;-59
2021/04/22 06:15:43;;;;;;;20.67;16.30;;;13.80;57.60;;;;;;5048112;28;20071;-60
2021/04/22 06:18:09;;;;;;;20.30;16.27;;;13.80;57.60;;;;;;5040182;28;20068;-60
2021/04/22 06:20:35;;;;;;;19.25;16.92;;;13.80;57.40;;;;;;5046865;28;20049;-61
2021/04/22 06:23:00;;;;;;;18.92;17.02;;;13.90;57.70;;;;;;5043410;28;20032;-60
2021/04/22 06:25:26;;;;;;;21.88;18.17;;;13.90;57.60;;;;;;5063543;28;20386;-60
2021/04/22 06:27:57;;;;;;;23.45;19.67;;;13.90;57.70;;;;;;5052315;28;20068;-60
2021/04/22 06:30:24;;;;;;;24.05;20.60;;;14.00;58.40;;;;;;5048747;28;20045;-60
2021/04/22 06:32:50;;;;;;;24.25;21.00;;;14.00;57.80;;;;;;5049396;28;20376;-60
2021/04/22 06:35:16;;;;;;;24.10;20.20;;;13.80;58.00;;;;;;5052103;28;20047;-60
2021/04/22 06:37:44;;;;;;;25.80;21.88;;;14.00;58.20;;;;;;5053113;28;20036;-59
2021/04/22 06:40:15;;;;;;;25.90;20.65;;;14.00;57.90;;;;;;5044432;28;20071;-60
2021/04/22 06:42:41;;;;;;;23.67;20.67;;;13.90;58.00;;;;;;5051287;28;20034;-60
2021/04/22 06:45:09;;;;;;;24.20;21.70;;;13.90;58.00;;;;;;5050801;28;20094;-60
2021/04/22 06:47:35;;;;;;;24.15;21.45;;;13.90;57.90;;;;;;5058290;28;20071;-60
2021/04/22 06:50:03;;;;;;;22.65;20.17;;;14.10;57.80;;;;;;5057560;28;20032;-59
2021/04/22 06:52:28;;;;;;;25.42;21.35;;;14.10;57.20;;;;;;5036738;28;20037;-59
2021/04/22 06:54:55;;;;;;;30.23;23.20;;;14.10;57.20;;;;;;5040598;28;20114;-60
2021/04/22 06:57:20;;;;;;;27.52;22.63;;;14.00;57.10;;;;;;5051147;28;20048;-60
2021/04/22 06:59:46;;;;;;;27.88;24.23;;;14.10;57.40;;;;;;5054546;28;20056;-59
2021/04/22 07:02:12;;;;;;;28.80;24.67;;;14.10;57.30;;;;;;5059453;28;20090;-60
2021/04/22 07:04:38;;;;;;;29.45;23.85;;;14.20;57.70;;;;;;5046888;28;20047;-60
2021/04/22 07:07:04;;;;;;;28.00;22.67;;;14.20;56.90;;;;;;5046340;28;20040;-63
2021/04/22 07:09:33;;;;;;;27.95;25.05;;;14.30;57.00;;;;;;5050416;28;20072;-60
2021/04/22 07:11:59;;;;;;;29.20;24.33;;;14.20;57.30;;;;;;5050189;28;20076;-60
2021/04/22 07:14:25;;;;;;;27.02;24.05;;;14.30;57.40;;;;;;5052134;28;20077;-59
2021/04/22 07:16:50;;;;;;;28.20;23.88;;;14.30;56.90;;;;;;5031466;28;20200;-59
2021/04/22 07:19:16;;;;;;;31.30;24.02;;;14.30;57.30;;;;;;5044624;28;20065;-59
2021/04/22 07:21:42;;;;;;;28.65;25.60;;;14.50;57.10;;;;;;5044520;28;20547;-59
2021/04/22 07:24:08;;;;;;;27.35;24.45;;;14.50;56.90;;;;;;5027583;28;20560;-59
2021/04/22 07:26:33;;;;;;;28.52;24.70;;;14.60;56.80;;;;;;5044684;28;20099;-59
2021/04/22 07:28:59;;;;;;;32.88;25.25;;;14.60;56.90;;;;;;5048419;28;20487;-59
2021/04/22 07:31:25;;;;;;;29.38;25.00;;;14.60;57.20;;;;;;5043220;28;20105;-59
2021/04/22 07:33:50;;;;;;;32.78;26.90;;;14.50;56.50;;;;;;5058993;28;20166;-59
2021/04/22 07:36:18;;;;;;;28.23;24.35;;;14.50;56.60;;;;;;5052093;28;20047;-58
2021/04/22 07:38:43;;;;;;;28.45;25.00;;;14.60;56.70;;;;;;5043257;28;20648;-59
2021/04/22 07:41:09;;;;;;;28.75;25.92;;;14.70;56.50;;;;;;5050935;28;20036;-59
2021/04/22 07:43:35;;;;;;;29.00;25.23;;;14.70;56.20;;;;;;5048044;28;20045;-61
2021/04/22 07:46:02;;;;;;;28.02;24.98;;;14.70;56.50;;;;;;5038583;28;20045;-58
2021/04/22 07:48:27;;;;;;;28.23;25.33;;;14.70;56.60;;;;;;5045070;28;20048;-59
2021/04/22 07:50:53;;;;;;;29.52;25.50;;;14.70;56.30;;;;;;5041767;28;20049;-59
2021/04/22 07:53:19;;;;;;;28.48;25.40;;;14.80;56.50;;;;;;5040167;28;20052;-59
2021/04/22 07:55:45;;;;;;;33.78;25.10;;;14.80;56.20;;;;;;5039468;28;20148;-60
2021/04/22 07:58:15;;;;;;;30.15;26.95;;;14.90;56.30;;;;;;5040179;28;20066;-60
2021/04/22 08:00:43;;;;;;;28.13;25.20;;;15.00;56.50;;;;;;5027186;28;20053;-60
2021/04/22 08:03:09;;;;;;;28.73;25.50;;;15.00;56.50;;;;;;5042381;28;20044;-60
2021/04/22 08:05:37;;;;;;;29.48;26.42;;;15.10;56.60;;;;;;5065694;28;20459;-60
2021/04/22 08:08:05;;;;;;;30.38;26.98;;;15.10;56.50;;;;;;5059832;28;20692;-60
2021/04/22 08:10:32;;;;;;;28.63;25.55;;;15.10;56.30;;;;;;5059428;28;20529;-60
2021/04/22 08:13:02;;;;;;;28.90;25.58;;;15.20;56.40;;;;;;5057811;28;20048;-60
2021/04/22 08:15:28;;;;;;;29.63;26.45;;;15.10;56.50;;;;;;5047254;28;20063;-60
2021/04/22 08:17:54;;;;;;;26.23;23.52;;;15.20;56.70;;;;;;5042554;28;20498;-59
2021/04/22 08:20:24;;;;;;;28.80;25.50;;;15.20;56.10;;;;;;5050288;28;20044;-60
2021/04/22 08:22:50;;;;;;;30.17;26.95;;;15.40;56.30;;;;;;5035462;28;20530;-60
2021/04/22 08:25:20;;;;;;;34.28;27.17;;;15.40;56.00;;;;;;5052111;28;20036;-60
2021/04/22 08:27:53;;;;;;;28.33;25.25;;;15.50;56.00;;;;;;5037419;28;20048;-60
2021/04/22 08:30:23;;;;;;;28.40;25.50;;;15.50;56.30;;;;;;5055922;28;20131;-60
2021/04/22 08:32:50;;;;;;;29.65;26.25;;;15.60;55.80;;;;;;5055088;28;20033;-59
2021/04/22 08:35:16;;;;;;;28.60;25.45;;;15.70;55.90;;;;;;5057954;28;20126;-59
2021/04/22 08:37:41;;;;;;;30.05;25.50;;;15.60;54.80;;;;;;5056771;28;20047;-59
2021/04/22 08:40:11;;;;;;;30.05;26.83;;;15.70;55.10;;;;;;5054143;28;20048;-60
2021/04/22 08:42:37;;;;;;;28.38;25.27;;;15.80;55.10;;;;;;5055300;28;20071;-60
2021/04/22 08:45:05;;;;;;;29.65;26.02;;;15.90;54.90;;;;;;5053484;28;20082;-59
2021/04/22 08:47:31;;;;;;;27.92;24.55;;;16.00;54.30;;;;;;5037980;28;20044;-58
2021/04/22 08:49:57;;;;;;;29.55;25.48;;;15.90;54.30;;;;;;5051546;28;20491;-59
2021/04/22 08:52:24;;;;;;;24.85;22.23;;;16.00;54.00;;;;;;5054908;28;20051;-59
2021/04/22 08:54:51;;;;;;;27.08;24.17;;;16.10;53.80;;;;;;5048424;28;20501;-60
2021/04/22 08:57:17;;;;;;;27.95;25.00;;;16.10;53.60;;;;;;5046535;28;20041;-60
2021/04/22 08:59:43;;;;;;;28.02;24.98;;;16.20;53.90;;;;;;5054695;28;20049;-60
2021/04/22 09:02:09;;;;;;;30.00;26.77;;;16.30;53.80;;;;;;5044048;28;20531;-61
2021/04/22 09:04:36;;;;;;;29.55;25.83;;;16.30;53.90;;;;;;5054730;28;20040;-59
2021/04/22 09:07:02;;;;;;;28.52;25.13;;;16.30;53.90;;;;;;5053075;28;20110;-59
2021/04/22 09:09:28;;;;;;;27.77;24.88;;;16.40;53.80;;;;;;5057109;28;20127;-59
2021/04/22 09:11:54;;;;;;;27.88;24.85;;;16.40;53.30;;;;;;5055800;28;20190;-59
2021/04/22 09:14:22;;;;;;;27.67;24.83;;;16.60;53.40;;;;;;5053517;28;20044;-58
2021/04/22 09:16:48;;;;;;;26.90;24.23;;;16.50;52.80;;;;;;5065395;28;20064;-58
2021/04/22 09:19:24;;;;;;;30.02;26.77;;;16.60;52.90;;;;;;5065649;28;20132;-57
2021/04/22 09:21:53;;;;;;;27.88;24.23;;;16.70;52.90;;;;;;5052404;28;20040;-59
2021/04/22 09:24:21;;;;;;;25.20;22.65;;;16.70;52.30;;;;;;5063874;28;20041;-62
2021/04/22 09:26:51;;;;;;;28.95;25.38;;;16.80;51.70;;;;;;5058605;28;20430;-59
2021/04/22 09:29:31;;;;;;;28.13;25.15;;;16.80;51.80;;;;;;5063044;28;20036;-60
2021/04/22 09:32:24;;;;;;;30.45;27.33;;;16.90;52.50;;;;;;5059378;28;20041;-59
2021/04/22 09:34:57;;;;;;;27.58;24.65;;;17.00;52.10;;;;;;5009454;28;20498;-60
2021/04/22 09:37:34;;;;;;;27.80;24.85;;;17.20;51.80;;;;;;5054603;28;20110;-60
2021/04/22 09:40:12;;;;;;;28.45;24.42;;;17.20;51.20;;;;;;5042263;28;20561;-61
2021/04/22 09:42:39;;;;;;;25.92;23.13;;;17.40;51.30;;;;;;5059600;28;20398;-64
2021/04/22 09:45:12;;;;;;;26.38;23.77;;;17.40;50.50;;;;;;5064659;28;20032;-60
2021/04/22 09:47:38;;;;;;;27.08;24.35;;;17.40;50.30;;;;;;5056197;28;20124;-63
2021/04/22 09:50:08;;;;;;;27.30;24.48;;;17.50;51.00;;;;;;5064160;28;20123;-60
2021/04/22 09:52:41;;;;;;;26.45;23.67;;;17.60;50.90;;;;;;5062481;28;20055;-60
2021/04/22 09:55:11;;;;;;;29.25;24.45;;;17.60;51.00;;;;;;5043564;28;20502;-61
2021/04/22 09:57:37;;;;;;;28.75;25.88;;;17.70;50.80;;;;;;5037982;28;20051;-62
2021/04/22 10:00:14;;;;;;;26.88;24.15;;;17.90;51.80;;;;;;5060249;28;20070;-61
2021/04/22 10:02:53;;;;;;;26.23;23.52;;;18.10;51.90;;;;;;5041335;28;20117;-61
2021/04/22 10:05:26;;;;;;;25.70;23.17;;;18.10;50.20;;;;;;5043715;28;20055;-60
2021/04/22 10:08:02;;;;;;;24.95;22.23;;;18.10;50.60;;;;;;5041614;28;20051;-61
2021/04/22 10:10:28;;;;;;;28.60;25.80;;;18.00;48.70;;;;;;5052375;28;20498;-61
2021/04/22 10:13:03;;;;;;;26.25;23.75;;;17.70;49.70;;;;;;5039573;28;20115;-61
2021/04/22 10:15:31;;;;;;;28.23;25.40;;;17.70;49.90;;;;;;5042452;28;20083;-61
2021/04/22 10:18:04;;;;;;;27.75;25.05;;;17.60;51.80;;;;;;5024910;28;20045;-61
2021/04/22 10:20:32;;;;;;;27.23;24.52;;;17.70;51.00;;;;;;5042082;28;20045;-61
2021/04/22 10:22:59;;;;;;;28.90;25.92;;;17.90;50.60;;;;;;5051567;28;20044;-61
2021/04/22 10:25:31;;;;;;;28.00;25.17;;;18.00;50.30;;;;;;5061109;28;20040;-61
2021/04/22 10:28:11;;;;;;;26.38;23.77;;;18.20;49.70;;;;;;5048212;28;20052;-61
2021/04/22 10:30:41;;;;;;;26.60;23.77;;;18.30;49.50;;;;;;5053562;28;20078;-60
2021/04/22 10:33:07;;;;;;;26.50;23.73;;;18.40;49.20;;;;;;5044067;28;20025;-61
2021/04/22 10:35:36;;;;;;;25.67;23.02;;;18.40;48.40;;;;;;5048019;28;20056;-61
2021/04/22 10:38:04;;;;;;;25.10;22.60;;;18.50;48.20;;;;;;5047346;28;20048;-61
2021/04/22 10:40:33;;;;;;;24.48;22.08;;;18.60;47.10;;;;;;5047559;28;20087;-62
2021/04/22 10:43:01;;;;;;;25.20;22.67;;;18.70;45.90;;;;;;5038822;28;20487;-61
2021/04/22 10:45:28;;;;;;;25.23;22.48;;;18.70;45.80;;;;;;5039379;28;20041;-62
2021/04/22 10:47:54;;;;;;;26.73;24.17;;;18.70;46.50;;;;;;5056675;28;20124;-62
2021/04/22 10:50:28;;;;;;;23.95;21.48;;;18.80;47.20;;;;;;5059250;28;20466;-61
2021/04/22 10:52:54;;;;;;;21.75;19.83;;;19.00;46.00;;;;;;5063924;28;20321;-60
2021/04/22 10:55:24;;;;;;;24.67;22.20;;;19.10;46.30;;;;;;5053377;28;20415;-62
2021/04/22 10:57:55;;;;;;;24.67;22.17;;;19.30;45.30;;;;;;5027993;28;20045;-61
2021/04/22 11:00:28;;;;;;;24.60;22.20;;;19.20;45.30;;;;;;5039447;28;20049;-61
2021/04/22 11:02:56;;;;;;;25.10;22.60;;;19.30;45.50;;;;;;5032621;28;20112;-62
2021/04/22 11:05:28;;;;;;;23.52;21.27;;;19.30;45.40;;;;;;5045203;28;20519;-61
2021/04/22 11:08:00;;;;;;;23.08;20.90;;;19.30;45.20;;;;;;5019743;28;20049;-61
2021/04/22 11:10:46;;;;;;;23.55;21.33;;;19.50;44.80;;;;;;5030689;28;20045;-62
2021/04/22 11:13:14;;;;;;;22.73;20.65;;;19.70;45.90;;;;;;5031857;28;20044;-61
2021/04/22 11:15:52;;;;;;;24.42;22.13;;;20.00;43.90;;;;;;5042418;28;20056;-61
2021/04/22 11:18:18;;;;;;;24.23;21.92;;;20.20;45.00;;;;;;5024766;28;20040;-62
2021/04/22 11:20:45;;;;;;;23.52;21.10;;;20.20;45.20;;;;;;5049052;28;20068;-62
2021/04/22 11:23:15;;;;;;;24.10;21.70;;;20.30;44.10;;;;;;5063003;28;20094;-62
2021/04/22 11:25:50;;;;;;;23.42;21.15;;;20.60;43.60;;;;;;5043886;28;20037;-62
2021/04/22 11:28:31;;;;;;;23.90;21.45;;;20.40;42.70;;;;;;5052267;28;20098;-61
2021/04/22 11:31:11;;;;;;;24.40;22.05;;;20.50;41.40;;;;;;5049753;28;20036;-61
2021/04/22 11:33:38;;;;;;;23.05;20.67;;;20.90;41.50;;;;;;5029233;28;20398;-61
2021/04/22 11:36:13;;;;;;;25.08;22.73;;;23.10;39.80;;;;;;5039252;28;20041;-62
2021/04/22 11:38:58;;;;;;;22.55;20.35;;;25.70;33.40;;;;;;5011106;28;20033;-62
2021/04/22 11:41:27;;;;;;;24.05;21.50;;;26.50;33.70;;;;;;5019587;28;20044;-62
2021/04/22 11:44:12;;;;;;;24.05;21.80;;;25.20;30.80;;;;;;5044859;28;20106;-63
2021/04/22 11:46:43;;;;;;;23.67;21.58;;;25.80;30.50;;;;;;5048997;28;20367;-62
2021/04/22 11:49:22;;;;;;;23.25;20.77;;;25.10;30.40;;;;;;5061148;28;20504;-63
2021/04/22 11:51:48;;;;;;;22.48;20.40;;;25.30;31.80;;;;;;5019482;28;20033;-63
2021/04/22 11:54:19;;;;;;;22.33;20.27;;;25.40;31.70;;;;;;5062447;28;20048;-62
2021/04/22 11:56:54;;;;;;;22.40;20.45;;;25.40;30.50;;;;;;5055778;28;20486;-62
2021/04/22 11:59:21;;;;;;;22.02;19.92;;;25.40;29.30;;;;;;5046458;28;20049;-63
2021/04/22 12:01:58;;;;;;;19.75;18.05;;;26.00;29.90;;;;;;5053971;28;20114;-63
2021/04/22 12:04:43;;;;;;;22.20;20.23;;;26.30;29.00;;;;;;5060656;28;20036;-63
2021/04/22 12:07:22;;;;;;;20.63;18.88;;;28.20;28.30;;;;;;5058069;28;20521;-62
2021/04/22 12:09:52;;;;;;;21.50;19.65;;;28.20;27.80;;;;;;5038230;28;20075;-63
2021/04/22 12:12:19;;;;;;;22.67;20.70;;;27.70;57.10;;;;;;5057421;28;20111;-62
2021/04/22 12:14:49;;;;;;;19.60;17.92;;;27.80;27.60;;;;;;5051583;28;20044;-62
2021/04/22 12:17:29;;;;;;;22.95;20.83;;;27.00;27.70;;;;;;5028816;28;20037;-62
2021/04/22 12:20:07;;;;;;;20.88;18.88;;;26.50;28.20;;;;;;5042983;28;20052;-61
2021/04/22 12:22:40;;;;;;;22.20;20.30;;;26.60;28.40;;;;;;5044098;28;20039;-62
2021/04/22 12:25:11;;;;;;;19.40;17.52;;;26.40;30.10;;;;;;5048419;28;20045;-62
2021/04/22 12:27:43;;;;;;;21.73;16.50;;;26.10;28.60;;;;;;5059058;28;20900;-60
2021/04/22 12:30:19;;;;;;;19.40;17.52;;;26.60;28.40;;;;;;5053969;28;20040;-59
2021/04/22 12:33:14;;;;;;;19.23;17.63;;;27.50;27.70;;;;;;5047845;28;20505;-59
2021/04/22 12:35:43;;;;;;;21.10;19.20;;;27.80;27.80;;;;;;5038202;28;20970;-60